Time;durP1;ratioP1;P1;durP2;ratioP2;P2;SDS_P1;SDS_P2;PMS_P1;PMS_P2;Temp;Humidity;BMP_temperature;BMP_pressure;BME280_temperature;BME280_humidity;BME280_pressure;Samples;Min_cycle;Max_cycle;Signal;HPM_P1;HPM_P2
2021/08/09 00:00:39;;;;;;;3.80;3.03;;;14.80;93.20;;;;;;5056918;28;20203;-83
2021/08/09 00:03:06;;;;;;;4.28;2.65;;;14.80;93.30;;;;;;5043929;28;20259;-82
2021/08/09 00:05:34;;;;;;;3.65;3.35;;;14.80;93.30;;;;;;5046861;28;20219;-82
2021/08/09 00:08:01;;;;;;;5.78;3.30;;;14.80;93.30;;;;;;5071284;28;20202;-82
2021/08/09 00:10:28;;;;;;;5.25;3.00;;;14.80;93.70;;;;;;5071061;28;20210;-83
2021/08/09 00:12:55;;;;;;;4.40;3.15;;;14.70;93.70;;;;;;5057644;28;20211;-82
2021/08/09 00:15:22;;;;;;;2.83;2.60;;;14.70;94.20;;;;;;5058272;28;20220;-82
2021/08/09 00:17:51;;;;;;;8.00;3.25;;;14.70;94.00;;;;;;5057165;28;20215;-81
2021/08/09 00:20:19;;;;;;;5.72;3.70;;;14.70;93.80;;;;;;5064862;28;20253;-81
2021/08/09 00:22:46;;;;;;;4.90;2.80;;;14.70;94.00;;;;;;5076914;28;20241;-82
2021/08/09 00:25:14;;;;;;;5.53;3.30;;;14.70;94.20;;;;;;5074520;28;20199;-81
2021/08/09 00:27:41;;;;;;;3.47;3.17;;;14.70;94.20;;;;;;5050177;28;20218;-81
2021/08/09 00:30:09;;;;;;;3.00;2.78;;;14.60;94.30;;;;;;5063643;28;20202;-83
2021/08/09 00:32:37;;;;;;;3.55;3.25;;;14.60;94.60;;;;;;5073330;28;20572;-84
2021/08/09 00:35:08;;;;;;;3.15;2.85;;;14.60;95.00;;;;;;5080073;28;20190;-82
2021/08/09 00:37:36;;;;;;;5.75;3.17;;;14.60;95.00;;;;;;5078073;28;20218;-82
2021/08/09 00:40:04;;;;;;;3.70;3.20;;;14.50;95.40;;;;;;5068738;28;20209;-83
2021/08/09 00:42:31;;;;;;;3.22;2.83;;;14.50;95.40;;;;;;5061562;28;20312;-81
2021/08/09 00:44:58;;;;;;;3.15;2.85;;;14.40;95.70;;;;;;5060926;28;20226;-82
2021/08/09 00:47:25;;;;;;;3.47;3.03;;;14.40;96.10;;;;;;5061660;28;20227;-82
2021/08/09 00:49:52;;;;;;;3.17;2.58;;;14.40;95.60;;;;;;5063167;28;20207;-84
2021/08/09 00:52:22;;;;;;;3.70;3.10;;;14.40;95.50;;;;;;5073707;28;20217;-84
2021/08/09 00:54:49;;;;;;;3.60;3.00;;;14.40;95.60;;;;;;5067028;28;20229;-83
2021/08/09 00:57:16;;;;;;;3.95;3.45;;;14.30;95.60;;;;;;5071722;28;20281;-84
2021/08/09 00:59:43;;;;;;;2.90;2.60;;;14.20;96.50;;;;;;5066149;28;20266;-83
2021/08/09 01:02:10;;;;;;;4.85;2.65;;;14.20;96.60;;;;;;5054548;28;20573;-83
2021/08/09 01:04:37;;;;;;;3.95;2.70;;;14.10;96.20;;;;;;5047375;28;20206;-83
2021/08/09 01:07:05;;;;;;;4.57;2.65;;;14.10;96.00;;;;;;5042191;28;20207;-82
2021/08/09 01:09:40;;;;;;;5.28;2.58;;;14.00;96.50;;;;;;5050596;28;20200;-82
2021/08/09 01:12:14;;;;;;;7.93;2.65;;;14.00;96.60;;;;;;5055162;28;20223;-84
2021/08/09 01:14:53;;;;;;;2.90;2.58;;;13.90;96.50;;;;;;5074707;28;20205;-82
2021/08/09 01:17:22;;;;;;;4.28;3.22;;;14.00;96.50;;;;;;5066637;28;20246;-81
2021/08/09 01:20:01;;;;;;;4.93;3.28;;;13.90;96.50;;;;;;5042506;28;20203;-82
2021/08/09 01:22:39;;;;;;;3.05;2.80;;;13.90;96.50;;;;;;5054837;28;20249;-81
2021/08/09 01:25:23;;;;;;;3.83;2.67;;;13.90;96.50;;;;;;5046564;28;20209;-82
2021/08/09 01:27:52;;;;;;;5.32;2.92;;;13.80;96.50;;;;;;5043325;28;20223;-82
2021/08/09 01:30:21;;;;;;;3.13;2.92;;;13.70;96.90;;;;;;5059408;28;20234;-82
2021/08/09 01:32:49;;;;;;;7.68;3.17;;;13.70;97.30;;;;;;5068437;28;20276;-82
2021/08/09 01:35:17;;;;;;;2.88;2.55;;;13.60;97.70;;;;;;5053907;28;20238;-81
2021/08/09 01:37:47;;;;;;;4.45;2.47;;;13.60;98.20;;;;;;5046176;28;20227;-82
2021/08/09 01:40:15;;;;;;;2.80;2.60;;;13.60;98.50;;;;;;5045795;28;20207;-82
2021/08/09 01:42:44;;;;;;;3.28;2.97;;;13.60;98.70;;;;;;5043761;28;20263;-83
2021/08/09 01:45:13;;;;;;;2.90;2.50;;;13.60;98.30;;;;;;5046874;28;20234;-84
2021/08/09 01:47:42;;;;;;;2.78;2.47;;;13.60;98.20;;;;;;5045361;28;20229;-83
2021/08/09 01:50:11;;;;;;;3.25;2.67;;;13.60;98.20;;;;;;5057562;28;20254;-84
2021/08/09 01:52:39;;;;;;;3.90;2.50;;;13.60;98.20;;;;;;5070794;28;20230;-82
2021/08/09 01:55:09;;;;;;;5.70;3.15;;;13.60;98.20;;;;;;5065757;28;20229;-81
2021/08/09 01:57:37;;;;;;;3.95;2.53;;;13.70;98.20;;;;;;5074565;28;20245;-83
2021/08/09 02:00:06;;;;;;;3.85;2.95;;;13.70;98.00;;;;;;5059776;28;20234;-82
2021/08/09 02:02:35;;;;;;;5.05;2.95;;;13.70;97.70;;;;;;5069243;28;20233;-81
2021/08/09 02:05:06;;;;;;;2.78;2.58;;;13.70;97.50;;;;;;5075779;28;20218;-81
2021/08/09 02:07:34;;;;;;;2.45;2.25;;;13.70;97.40;;;;;;5074750;28;20199;-82
2021/08/09 02:10:03;;;;;;;3.50;2.50;;;13.70;97.30;;;;;;5072581;28;20206;-83
2021/08/09 02:12:31;;;;;;;3.92;2.80;;;13.70;97.00;;;;;;5072162;28;20226;-82
2021/08/09 02:15:01;;;;;;;3.50;2.50;;;13.60;96.70;;;;;;5067233;28;20206;-83
2021/08/09 02:17:36;;;;;;;6.22;2.35;;;13.60;96.70;;;;;;5058605;28;20532;-81
2021/08/09 02:20:07;;;;;;;2.75;2.42;;;13.50;96.30;;;;;;5056587;28;20673;-83
2021/08/09 02:22:40;;;;;;;4.53;2.90;;;13.50;96.30;;;;;;5068714;28;20222;-84
2021/08/09 02:25:09;;;;;;;3.25;2.60;;;13.50;96.40;;;;;;5073374;28;20221;-83
2021/08/09 02:27:42;;;;;;;2.35;2.25;;;13.40;96.30;;;;;;5058394;28;20233;-84
2021/08/09 02:30:11;;;;;;;6.88;2.47;;;13.40;96.60;;;;;;5053739;28;20759;-84
2021/08/09 02:32:41;;;;;;;4.13;2.65;;;13.30;96.60;;;;;;5056561;28;20239;-84
2021/08/09 02:35:10;;;;;;;2.75;2.55;;;13.30;96.80;;;;;;5057548;28;20480;-82
2021/08/09 02:37:37;;;;;;;7.13;2.97;;;13.20;96.70;;;;;;5071111;28;20225;-81
2021/08/09 02:40:06;;;;;;;3.47;2.30;;;13.20;97.70;;;;;;5077208;28;20187;-82
2021/08/09 02:42:34;;;;;;;2.80;2.60;;;13.10;98.00;;;;;;5077405;28;20225;-80
2021/08/09 02:45:01;;;;;;;5.43;2.40;;;13.20;98.00;;;;;;5069193;28;20195;-83
2021/08/09 02:47:33;;;;;;;3.13;2.17;;;13.10;98.00;;;;;;5057716;28;20198;-83
2021/08/09 02:50:02;;;;;;;4.50;2.63;;;13.10;98.00;;;;;;5067174;28;20198;-82
2021/08/09 02:52:29;;;;;;;5.22;2.30;;;13.00;98.00;;;;;;5061857;28;20250;-82
2021/08/09 02:54:57;;;;;;;3.00;2.45;;;13.00;98.20;;;;;;5057979;28;20229;-83
2021/08/09 02:57:27;;;;;;;3.17;2.60;;;13.00;99.40;;;;;;5039896;28;20253;-82
2021/08/09 02:59:54;;;;;;;3.67;2.00;;;13.10;99.40;;;;;;5043891;28;20230;-82
2021/08/09 03:02:21;;;;;;;2.80;2.60;;;13.10;99.40;;;;;;5050729;28;20222;-83
2021/08/09 03:04:49;;;;;;;3.05;2.72;;;13.30;99.50;;;;;;5040375;28;20207;-83
2021/08/09 03:07:18;;;;;;;4.20;2.55;;;13.20;98.50;;;;;;5052091;28;20286;-82
2021/08/09 03:09:45;;;;;;;2.85;2.20;;;13.30;98.50;;;;;;5057123;28;20223;-83
2021/08/09 03:12:16;;;;;;;3.53;2.40;;;13.30;98.00;;;;;;5032870;28;20255;-83
2021/08/09 03:14:48;;;;;;;3.28;2.45;;;13.30;98.00;;;;;;5040381;28;20218;-83
2021/08/09 03:17:15;;;;;;;3.33;2.65;;;13.30;97.60;;;;;;5041505;28;20761;-82
2021/08/09 03:19:42;;;;;;;3.78;2.47;;;13.40;97.50;;;;;;5046780;28;20207;-83
2021/08/09 03:22:10;;;;;;;2.20;2.10;;;13.40;96.70;;;;;;5057023;28;20233;-82
2021/08/09 03:24:39;;;;;;;3.15;2.40;;;13.40;96.30;;;;;;5051654;28;20266;-83
2021/08/09 03:27:06;;;;;;;4.45;2.63;;;13.40;96.00;;;;;;5057205;28;20265;-81
2021/08/09 03:29:33;;;;;;;3.45;2.60;;;13.50;95.60;;;;;;5066348;28;20217;-81
2021/08/09 03:32:00;;;;;;;5.38;3.30;;;13.50;95.40;;;;;;5046086;28;20294;-81
2021/08/09 03:34:27;;;;;;;4.60;2.33;;;13.40;95.60;;;;;;5046574;28;20267;-81
2021/08/09 03:36:54;;;;;;;3.88;2.22;;;13.40;95.70;;;;;;5073809;28;20208;-84
2021/08/09 03:39:21;;;;;;;4.53;2.85;;;13.50;95.70;;;;;;5079230;28;20209;-84
2021/08/09 03:41:49;;;;;;;3.15;2.45;;;13.50;95.50;;;;;;5065215;28;20253;-80
2021/08/09 03:44:16;;;;;;;2.33;2.13;;;13.40;95.10;;;;;;5053908;28;20290;-81
2021/08/09 03:46:43;;;;;;;5.03;2.45;;;13.40;95.10;;;;;;5062016;28;20666;-80
2021/08/09 03:49:11;;;;;;;2.95;1.85;;;13.40;95.10;;;;;;5058072;28;21003;-80
2021/08/09 03:51:40;;;;;;;2.53;2.10;;;13.50;95.50;;;;;;5056647;28;20202;-80
2021/08/09 03:54:07;;;;;;;2.95;2.22;;;13.50;95.60;;;;;;5057897;28;20316;-80
2021/08/09 03:56:35;;;;;;;2.33;2.13;;;13.50;95.40;;;;;;5051563;28;20241;-81
2021/08/09 03:59:03;;;;;;;4.15;2.33;;;13.40;95.20;;;;;;5039458;28;20237;-82
2021/08/09 04:01:36;;;;;;;2.90;2.30;;;13.50;95.40;;;;;;5046517;28;20191;-85
2021/08/09 04:04:04;;;;;;;2.10;2.00;;;13.40;95.30;;;;;;5076889;28;20190;-80
2021/08/09 04:06:31;;;;;;;4.65;2.20;;;13.50;95.20;;;;;;5066785;28;20203;-80
2021/08/09 04:08:58;;;;;;;3.10;2.50;;;13.60;94.90;;;;;;5068777;28;20761;-83
2021/08/09 04:11:26;;;;;;;5.03;3.53;;;13.60;94.50;;;;;;5056458;28;20211;-80
2021/08/09 04:13:52;;;;;;;4.55;2.53;;;13.60;94.50;;;;;;5052082;28;20234;-84
2021/08/09 04:16:24;;;;;;;3.80;2.35;;;13.70;94.10;;;;;;5065018;28;20203;-86
2021/08/09 04:18:51;;;;;;;3.17;2.08;;;13.70;93.70;;;;;;5078437;28;20229;-85
2021/08/09 04:21:18;;;;;;;2.75;2.50;;;13.70;93.80;;;;;;5074609;28;20226;-83
2021/08/09 04:23:45;;;;;;;2.55;2.35;;;13.80;93.40;;;;;;5056103;28;20212;-81
2021/08/09 04:26:12;;;;;;;5.93;2.60;;;13.80;93.30;;;;;;5044207;28;20211;-82
2021/08/09 04:28:39;;;;;;;4.10;1.83;;;13.80;92.80;;;;;;5056378;28;20214;-83
2021/08/09 04:31:06;;;;;;;2.72;2.53;;;13.90;92.60;;;;;;5066675;28;20232;-84
2021/08/09 04:33:41;;;;;;;4.05;2.38;;;13.90;92.30;;;;;;5069421;28;20246;-82
2021/08/09 04:36:08;;;;;;;2.90;2.03;;;14.00;92.10;;;;;;5037178;28;20252;-83
2021/08/09 04:38:35;;;;;;;2.65;2.05;;;14.00;91.60;;;;;;5045713;28;20226;-85
2021/08/09 04:41:06;;;;;;;3.67;2.13;;;14.00;91.50;;;;;;5066774;28;20210;-81
2021/08/09 04:43:34;;;;;;;5.03;2.33;;;14.10;91.50;;;;;;5073379;22;20226;-81
2021/08/09 04:46:02;;;;;;;4.40;2.30;;;14.10;91.60;;;;;;5058108;28;20250;-82
2021/08/09 04:48:29;;;;;;;3.75;2.42;;;14.10;91.00;;;;;;5062624;28;20495;-82
2021/08/09 04:50:57;;;;;;;2.67;2.38;;;14.00;91.40;;;;;;5066134;28;20230;-81
2021/08/09 04:53:24;;;;;;;2.95;2.30;;;14.00;91.30;;;;;;5067463;28;20318;-81
2021/08/09 04:55:51;;;;;;;2.55;2.35;;;14.10;91.30;;;;;;5070885;28;20222;-81
2021/08/09 04:58:18;;;;;;;3.95;2.38;;;14.20;90.80;;;;;;5079404;28;20225;-81
2021/08/09 05:00:45;;;;;;;2.38;2.17;;;14.20;90.60;;;;;;5071324;28;20251;-82
2021/08/09 05:03:12;;;;;;;5.85;2.83;;;14.30;90.70;;;;;;5052710;28;20253;-81
2021/08/09 05:05:39;;;;;;;3.33;2.42;;;14.40;90.30;;;;;;5056145;28;20227;-81
2021/08/09 05:08:07;;;;;;;3.72;2.17;;;14.70;90.30;;;;;;5053280;28;20238;-81
2021/08/09 05:10:34;;;;;;;3.88;2.55;;;15.00;89.20;;;;;;5041010;28;20226;-81
2021/08/09 05:13:01;;;;;;;2.72;2.20;;;15.10;85.00;;;;;;5061686;28;20254;-82
2021/08/09 05:15:30;;;;;;;2.22;1.92;;;15.30;82.60;;;;;;5061359;28;20246;-81
2021/08/09 05:17:57;;;;;;;4.10;2.85;;;15.30;81.10;;;;;;5059402;28;20253;-81
2021/08/09 05:20:25;;;;;;;4.68;2.30;;;15.40;80.40;;;;;;5063994;28;20203;-81
2021/08/09 05:22:51;;;;;;;3.70;2.42;;;15.30;79.40;;;;;;5061599;28;20218;-81
2021/08/09 05:25:22;;;;;;;2.17;1.98;;;15.10;81.30;;;;;;5062118;28;20210;-81
2021/08/09 05:27:49;;;;;;;3.25;1.95;;;15.10;83.00;;;;;;5053590;28;20207;-81
2021/08/09 05:30:16;;;;;;;2.65;2.25;;;15.30;82.20;;;;;;5064837;28;20233;-81
2021/08/09 05:32:43;;;;;;;2.65;2.45;;;15.50;81.30;;;;;;5048796;28;20245;-81
2021/08/09 05:35:11;;;;;;;4.88;2.25;;;15.80;78.50;;;;;;5045799;28;20234;-80
2021/08/09 05:37:38;;;;;;;3.22;2.40;;;16.10;77.60;;;;;;5055986;28;20204;-82
2021/08/09 05:40:07;;;;;;;2.40;2.00;;;16.70;74.50;;;;;;5056624;28;20189;-83
2021/08/09 05:42:35;;;;;;;2.53;2.13;;;17.70;70.30;;;;;;5050290;28;20892;-82
2021/08/09 05:45:03;;;;;;;4.10;2.63;;;18.70;62.70;;;;;;5049500;28;20458;-80
2021/08/09 05:47:29;;;;;;;6.70;2.63;;;19.50;58.10;;;;;;5045862;28;20442;-81
2021/08/09 05:49:56;;;;;;;2.37;2.13;;;19.80;54.80;;;;;;5045373;28;20545;-81
2021/08/09 05:52:25;;;;;;;3.37;2.00;;;20.20;52.50;;;;;;5047005;28;20524;-81
2021/08/09 05:54:53;;;;;;;4.43;2.23;;;19.90;53.10;;;;;;5061006;28;20450;-82
2021/08/09 05:57:20;;;;;;;2.63;2.00;;;19.90;52.60;;;;;;5066236;28;20486;-82
2021/08/09 05:59:48;;;;;;;4.80;2.37;;;19.60;53.40;;;;;;5054687;28;20475;-82
2021/08/09 06:02:15;;;;;;;3.10;2.43;;;19.70;52.80;;;;;;5056117;28;20436;-83
2021/08/09 06:04:42;;;;;;;4.83;2.40;;;19.50;52.50;;;;;;5048416;28;20427;-82
2021/08/09 06:07:13;;;;;;;8.13;2.77;;;18.90;54.60;;;;;;5054766;28;20480;-81
2021/08/09 06:09:40;;;;;;;4.03;2.30;;;18.50;57.20;;;;;;5051263;28;20428;-82
2021/08/09 06:12:08;;;;;;;3.90;2.67;;;18.30;57.70;;;;;;5057296;28;20458;-80
2021/08/09 06:14:35;;;;;;;5.40;3.00;;;18.10;58.00;;;;;;5052373;28;20453;-82
2021/08/09 06:17:03;;;;;;;5.57;2.20;;;18.00;59.30;;;;;;5065537;28;20482;-82
2021/08/09 06:19:30;;;;;;;3.63;2.00;;;18.30;57.90;;;;;;5048865;28;20851;-81
2021/08/09 06:21:57;;;;;;;5.23;2.10;;;18.60;56.00;;;;;;5040046;28;20502;-81
2021/08/09 06:24:24;;;;;;;6.80;1.87;;;18.70;55.70;;;;;;5061073;28;20449;-81
2021/08/09 06:26:51;;;;;;;2.67;2.10;;;19.20;54.10;;;;;;5050771;28;20488;-81
2021/08/09 06:29:18;;;;;;;1.60;1.50;;;20.00;51.60;;;;;;5047549;28;20450;-80
2021/08/09 06:31:45;;;;;;;5.83;1.60;;;20.20;49.60;;;;;;5051717;28;20472;-81
2021/08/09 06:34:14;;;;;;;3.77;1.37;;;20.70;48.40;;;;;;5055226;28;20487;-81
2021/08/09 06:36:41;;;;;;;2.77;1.83;;;21.20;45.40;;;;;;5063869;28;20483;-82
2021/08/09 06:39:10;;;;;;;1.53;1.43;;;21.30;44.80;;;;;;5044626;28;20543;-82
2021/08/09 06:41:37;;;;;;;1.40;1.30;;;21.50;44.10;;;;;;5046537;28;20451;-81
2021/08/09 06:44:04;;;;;;;4.17;1.70;;;21.50;44.10;;;;;;5060195;28;20532;-82
2021/08/09 06:46:31;;;;;;;4.83;1.90;;;20.70;45.40;;;;;;5054119;28;20522;-82
2021/08/09 06:48:58;;;;;;;2.70;1.73;;;20.50;46.10;;;;;;5039285;28;20450;-80
2021/08/09 06:51:26;;;;;;;2.10;1.90;;;19.60;48.50;;;;;;5045451;28;20544;-82
2021/08/09 06:53:53;;;;;;;2.67;1.93;;;19.20;50.50;;;;;;5059134;28;20466;-82
2021/08/09 06:56:20;;;;;;;2.50;2.27;;;18.80;52.30;;;;;;5060211;28;20461;-80
2021/08/09 06:58:47;;;;;;;2.70;1.93;;;19.00;51.80;;;;;;5061556;28;20513;-83
2021/08/09 07:01:14;;;;;;;2.30;2.03;;;19.00;51.60;;;;;;5062436;28;20451;-81
2021/08/09 07:03:43;;;;;;;3.60;2.07;;;19.00;51.60;;;;;;5053679;28;20571;-81
2021/08/09 07:06:17;;;;;;;2.40;1.70;;;19.00;53.10;;;;;;5060881;28;20465;-81
2021/08/09 07:08:45;;;;;;;2.20;2.00;;;19.00;52.30;;;;;;5046460;28;20452;-81
2021/08/09 07:11:12;;;;;;;3.13;2.40;;;18.90;52.30;;;;;;5043482;28;20456;-82
2021/08/09 07:13:39;;;;;;;2.77;2.07;;;18.90;52.70;;;;;;5058184;28;20495;-82
2021/08/09 07:16:06;;;;;;;4.30;2.30;;;18.90;52.70;;;;;;5059202;28;20460;-80
2021/08/09 07:18:33;;;;;;;3.30;1.87;;;18.60;54.10;;;;;;5058807;28;20476;-80
2021/08/09 07:21:01;;;;;;;4.40;1.90;;;18.70;54.30;;;;;;5057439;28;20462;-80
2021/08/09 07:23:28;;;;;;;2.30;1.70;;;19.00;53.70;;;;;;5038054;28;20567;-81
2021/08/09 07:25:56;;;;;;;4.40;1.90;;;19.10;52.10;;;;;;5054876;28;20465;-82
2021/08/09 07:28:23;;;;;;;4.70;2.10;;;19.10;51.50;;;;;;5061860;28;20458;-82
2021/08/09 07:30:50;;;;;;;5.10;1.60;;;19.10;51.50;;;;;;5044996;28;20508;-83
2021/08/09 07:33:17;;;;;;;1.70;1.60;;;19.00;52.00;;;;;;5040338;28;20845;-84
2021/08/09 07:35:44;;;;;;;4.90;1.87;;;19.00;52.10;;;;;;5051203;28;20464;-83
2021/08/09 07:38:12;;;;;;;2.13;1.37;;;19.10;52.80;;;;;;5060658;28;20990;-83
2021/08/09 07:40:39;;;;;;;2.10;1.83;;;19.20;52.70;;;;;;5047358;28;20515;-81
2021/08/09 07:43:07;;;;;;;2.37;1.63;;;19.30;53.10;;;;;;5057945;28;20447;-82
2021/08/09 07:45:34;;;;;;;1.37;1.27;;;19.40;52.80;;;;;;5052668;28;20486;-81
2021/08/09 07:48:03;;;;;;;1.90;1.30;;;19.50;53.00;;;;;;5036990;28;20473;-83
2021/08/09 07:50:30;;;;;;;3.73;1.70;;;19.60;52.60;;;;;;5031793;28;20433;-83
2021/08/09 07:52:57;;;;;;;3.07;1.57;;;19.60;53.00;;;;;;5033354;28;20552;-83
2021/08/09 07:55:25;;;;;;;3.43;1.70;;;19.70;53.20;;;;;;5027031;28;20470;-83
2021/08/09 07:57:52;;;;;;;2.80;1.80;;;19.60;53.90;;;;;;5038806;28;20905;-82
2021/08/09 08:00:20;;;;;;;2.30;1.60;;;19.80;53.60;;;;;;5046374;28;20996;-83
2021/08/09 08:02:48;;;;;;;1.83;1.40;;;20.00;52.90;;;;;;5072206;28;20454;-83
2021/08/09 08:05:15;;;;;;;2.40;1.60;;;20.20;52.60;;;;;;5065280;28;20448;-83
2021/08/09 08:07:42;;;;;;;5.13;2.07;;;20.40;51.40;;;;;;5058646;28;20442;-82
2021/08/09 08:10:10;;;;;;;3.23;1.80;;;20.60;50.40;;;;;;5059833;28;20484;-82
2021/08/09 08:12:37;;;;;;;3.10;1.50;;;20.70;49.90;;;;;;5060429;28;20505;-82
2021/08/09 08:15:05;;;;;;;5.50;1.63;;;21.00;49.80;;;;;;5060237;28;20463;-83
2021/08/09 08:17:33;;;;;;;3.20;1.57;;;21.40;49.80;;;;;;5052717;28;20491;-82
2021/08/09 08:20:00;;;;;;;2.60;2.03;;;21.60;47.00;;;;;;5060948;28;20489;-83
2021/08/09 08:22:28;;;;;;;3.20;1.70;;;21.70;46.30;;;;;;5061455;28;20582;-84
2021/08/09 08:24:55;;;;;;;5.63;2.30;;;21.70;46.40;;;;;;5062061;28;20474;-82
2021/08/09 08:27:21;;;;;;;1.87;1.53;;;21.70;46.60;;;;;;5044349;28;20787;-83
2021/08/09 08:29:48;;;;;;;3.13;1.60;;;21.90;45.30;;;;;;5048690;28;20440;-82
2021/08/09 08:32:16;;;;;;;5.83;1.77;;;22.00;45.00;;;;;;5050504;28;20531;-83
2021/08/09 08:34:44;;;;;;;2.80;1.50;;;22.10;43.70;;;;;;5050445;28;20452;-82
2021/08/09 08:37:11;;;;;;;3.70;1.83;;;22.00;43.30;;;;;;5052840;28;20432;-83
2021/08/09 08:39:38;;;;;;;2.70;1.90;;;21.90;42.30;;;;;;5059515;28;20449;-82
2021/08/09 08:42:05;;;;;;;2.70;1.70;;;22.00;43.20;;;;;;5042617;28;20987;-84
2021/08/09 08:44:32;;;;;;;2.70;1.40;;;22.10;42.60;;;;;;5025228;28;20453;-84
2021/08/09 08:46:59;;;;;;;2.93;1.80;;;22.00;41.10;;;;;;5040177;28;20446;-84
2021/08/09 08:49:28;;;;;;;2.63;1.80;;;22.00;41.90;;;;;;5047130;28;20472;-83
2021/08/09 08:51:56;;;;;;;1.87;1.40;;;21.90;43.10;;;;;;5051353;28;20464;-83
2021/08/09 08:54:23;;;;;;;3.00;2.13;;;21.80;42.00;;;;;;5050310;28;20483;-83
2021/08/09 08:56:50;;;;;;;4.47;1.97;;;21.70;42.30;;;;;;5036024;28;20805;-83
2021/08/09 08:59:18;;;;;;;3.23;1.50;;;21.60;41.90;;;;;;5032022;28;20489;-83
2021/08/09 09:01:46;;;;;;;3.30;1.73;;;21.70;42.40;;;;;;5031362;28;20532;-80
2021/08/09 09:04:25;;;;;;;2.63;1.57;;;21.80;41.90;;;;;;5018635;28;20477;-83
2021/08/09 09:07:02;;;;;;;2.03;1.30;;;22.00;40.70;;;;;;5017789;28;20433;-84
2021/08/09 09:09:30;;;;;;;2.30;1.53;;;22.10;40.80;;;;;;5017702;28;20433;-84
2021/08/09 09:11:57;;;;;;;2.60;1.90;;;22.20;41.40;;;;;;5025750;28;20488;-84
2021/08/09 09:14:26;;;;;;;2.23;1.30;;;22.30;41.70;;;;;;5037738;28;20560;-83
2021/08/09 09:16:53;;;;;;;2.17;1.60;;;22.30;40.90;;;;;;5033401;28;21083;-83
2021/08/09 09:19:35;;;;;;;2.00;1.20;;;22.40;41.00;;;;;;5029414;28;20491;-83
2021/08/09 09:22:04;;;;;;;2.10;1.30;;;22.50;39.00;;;;;;5039241;28;20436;-82
2021/08/09 09:24:31;;;;;;;3.30;1.57;;;22.40;39.20;;;;;;5040073;28;20550;-82
2021/08/09 09:27:02;;;;;;;2.40;1.30;;;22.50;40.00;;;;;;5043220;28;20437;-81
2021/08/09 09:29:34;;;;;;;1.60;1.30;;;22.70;38.80;;;;;;5036499;28;20476;-80
2021/08/09 09:32:14;;;;;;;2.23;1.50;;;22.80;39.10;;;;;;5040421;28;20416;-79
2021/08/09 09:34:47;;;;;;;9.07;1.50;;;22.90;37.70;;;;;;5042174;28;20887;-79
2021/08/09 09:37:25;;;;;;;2.30;1.50;;;23.00;37.50;;;;;;5045911;28;20448;-80
2021/08/09 09:39:52;;;;;;;3.60;1.50;;;23.10;37.30;;;;;;5042603;28;20549;-80
2021/08/09 09:42:19;;;;;;;2.10;1.57;;;23.10;37.40;;;;;;5057406;28;20986;-79
2021/08/09 09:44:46;;;;;;;2.47;1.20;;;23.00;37.10;;;;;;5066925;28;20516;-80
2021/08/09 09:47:21;;;;;;;2.23;1.83;;;23.20;37.20;;;;;;5070510;28;20463;-80
2021/08/09 09:49:49;;;;;;;5.27;1.40;;;23.60;37.20;;;;;;5070991;28;20511;-79
2021/08/09 09:52:35;;;;;;;3.50;1.50;;;24.10;35.30;;;;;;5061623;28;20459;-77
2021/08/09 09:55:05;;;;;;;2.73;1.30;;;24.60;34.70;;;;;;5054299;28;20491;-79
2021/08/09 09:57:32;;;;;;;2.17;1.30;;;25.00;34.60;;;;;;5068265;28;20490;-79
2021/08/09 10:00:00;;;;;;;1.53;1.10;;;25.30;33.30;;;;;;5059506;28;20552;-80
2021/08/09 10:02:27;;;;;;;1.87;1.40;;;25.60;33.10;;;;;;5039247;28;20474;-77
2021/08/09 10:04:54;;;;;;;4.50;1.70;;;25.80;31.70;;;;;;5039516;28;20458;-79
2021/08/09 10:07:25;;;;;;;1.53;1.00;;;25.80;31.70;;;;;;5023895;28;20456;-78
2021/08/09 10:09:55;;;;;;;2.30;1.00;;;25.70;31.80;;;;;;5037341;28;20469;-78
2021/08/09 10:12:26;;;;;;;1.77;1.07;;;25.70;31.50;;;;;;5041082;28;20489;-79
2021/08/09 10:14:55;;;;;;;2.03;1.30;;;25.70;31.40;;;;;;5041523;28;20453;-79
2021/08/09 10:17:23;;;;;;;2.83;1.23;;;25.60;30.30;;;;;;5035945;28;20449;-77
2021/08/09 10:19:51;;;;;;;2.23;1.00;;;25.30;30.10;;;;;;5036843;28;20460;-77
2021/08/09 10:22:20;;;;;;;1.50;1.10;;;25.10;30.30;;;;;;5035429;28;20478;-78
2021/08/09 10:24:48;;;;;;;2.07;1.40;;;25.20;30.60;;;;;;5036428;28;20428;-81
2021/08/09 10:27:16;;;;;;;1.20;1.10;;;25.30;29.90;;;;;;5042521;28;20444;-80
2021/08/09 10:30:13;;;;;;;3.03;1.50;;;25.50;30.20;;;;;;5046653;28;20495;-79
2021/08/09 10:32:45;;;;;;;1.13;1.07;;;25.60;30.70;;;;;;5049755;28;20440;-79
2021/08/09 10:36:01;;;;;;;1.87;1.30;;;26.00;29.70;;;;;;5051482;28;20433;-79
2021/08/09 10:38:36;;;;;;;1.63;1.00;;;26.20;29.50;;;;;;5029438;28;20836;-80
2021/08/09 10:41:45;;;;;;;3.13;1.10;;;26.00;28.60;;;;;;5041816;28;20507;-79
2021/08/09 10:44:26;;;;;;;2.80;1.13;;;25.80;29.40;;;;;;5069520;22;20516;-78
2021/08/09 10:46:57;;;;;;;2.77;1.20;;;25.90;29.00;;;;;;5037248;28;20431;-78
2021/08/09 10:49:52;;;;;;;2.97;1.40;;;25.60;29.80;;;;;;5037628;28;20533;-78
2021/08/09 10:52:45;;;;;;;2.57;1.60;;;25.80;29.90;;;;;;5002432;28;20858;-78
2021/08/09 10:55:44;;;;;;;2.83;1.50;;;25.80;29.90;;;;;;5021001;28;20533;-79
2021/08/09 10:58:26;;;;;;;3.10;1.50;;;25.70;30.00;;;;;;5022390;28;20450;-79
2021/08/09 11:00:59;;;;;;;1.40;1.03;;;25.60;30.80;;;;;;5044338;28;20481;-80
2021/08/09 11:03:26;;;;;;;2.67;1.30;;;25.60;30.70;;;;;;5040044;28;20481;-78
2021/08/09 11:05:53;;;;;;;3.17;1.67;;;25.70;31.10;;;;;;5040703;28;20481;-78
2021/08/09 11:08:34;;;;;;;1.73;1.17;;;25.50;31.30;;;;;;5038046;28;20450;-78
2021/08/09 11:11:05;;;;;;;3.63;1.33;;;25.30;32.00;;;;;;5041332;28;20404;-78
2021/08/09 11:14:16;;;;;;;1.57;1.20;;;25.20;31.50;;;;;;5040255;28;20484;-79
2021/08/09 11:16:43;;;;;;;2.90;1.47;;;25.10;32.20;;;;;;5037131;28;20471;-78
2021/08/09 11:19:21;;;;;;;2.00;1.43;;;25.10;32.90;;;;;;5038624;28;20487;-78
2021/08/09 11:21:54;;;;;;;2.47;1.43;;;25.40;31.10;;;;;;5044199;28;20468;-78
2021/08/09 11:24:36;;;;;;;2.63;1.23;;;25.10;33.20;;;;;;5044660;28;20484;-79
2021/08/09 11:27:07;;;;;;;2.93;1.40;;;25.10;33.20;;;;;;5044861;28;20760;-77
2021/08/09 11:29:53;;;;;;;2.30;1.60;;;24.80;32.90;;;;;;5045002;28;20433;-78
2021/08/09 11:32:36;;;;;;;3.10;1.53;;;25.20;31.90;;;;;;5041104;28;20487;-79
2021/08/09 11:35:04;;;;;;;1.43;1.10;;;25.50;31.70;;;;;;5062568;28;20503;-79
2021/08/09 11:37:31;;;;;;;2.83;1.10;;;25.80;30.60;;;;;;5066236;28;20547;-79
2021/08/09 11:39:58;;;;;;;1.40;1.20;;;26.20;29.40;;;;;;5065996;28;20484;-79
2021/08/09 11:42:25;;;;;;;2.03;1.10;;;26.20;28.90;;;;;;5026847;28;20483;-78
2021/08/09 11:44:53;;;;;;;2.40;1.00;;;26.30;28.70;;;;;;5030920;28;20455;-80
2021/08/09 11:47:21;;;;;;;3.20;1.37;;;26.20;29.00;;;;;;5026675;28;20516;-77
2021/08/09 11:49:48;;;;;;;1.40;1.23;;;26.20;29.00;;;;;;5027130;28;20447;-79
2021/08/09 11:52:19;;;;;;;3.53;1.50;;;26.30;28.80;;;;;;5024630;28;20477;-78
2021/08/09 11:54:47;;;;;;;3.23;1.40;;;26.00;29.00;;;;;;5026566;28;20420;-78
2021/08/09 11:57:14;;;;;;;2.00;1.13;;;26.30;29.10;;;;;;5020647;28;20469;-78
2021/08/09 11:59:41;;;;;;;1.40;1.20;;;26.40;27.60;;;;;;5018303;28;20792;-78
2021/08/09 12:02:10;;;;;;;2.20;1.10;;;26.40;27.60;;;;;;5021474;28;20460;-79
2021/08/09 12:04:45;;;;;;;1.40;1.10;;;26.40;27.50;;;;;;5022596;28;20453;-78
2021/08/09 12:07:19;;;;;;;1.80;1.30;;;26.10;27.80;;;;;;5017853;28;20431;-77
2021/08/09 12:09:46;;;;;;;6.20;1.30;;;25.80;27.90;;;;;;5019630;28;20460;-78
2021/08/09 12:12:15;;;;;;;3.40;1.47;;;25.80;28.10;;;;;;5046672;28;20517;-78
2021/08/09 12:14:42;;;;;;;2.40;1.50;;;25.90;28.30;;;;;;5062616;28;20488;-78
2021/08/09 12:17:16;;;;;;;2.10;1.07;;;26.30;28.20;;;;;;5060107;28;20505;-78
2021/08/09 12:19:44;;;;;;;1.87;1.20;;;26.10;27.90;;;;;;5058284;28;20416;-77
2021/08/09 12:22:14;;;;;;;3.40;1.60;;;25.70;28.80;;;;;;5056677;28;20856;-77
2021/08/09 12:24:42;;;;;;;2.40;1.23;;;25.70;29.20;;;;;;5056220;28;20460;-78
2021/08/09 12:27:17;;;;;;;3.47;1.50;;;25.30;29.30;;;;;;5056042;28;20436;-77
2021/08/09 12:30:00;;;;;;;2.60;1.40;;;25.10;29.50;;;;;;5055466;28;20461;-78
2021/08/09 12:32:28;;;;;;;2.17;1.40;;;24.70;30.10;;;;;;5057062;28;20433;-78
2021/08/09 12:34:55;;;;;;;5.77;1.50;;;24.70;30.20;;;;;;5056205;28;20490;-78
2021/08/09 12:37:22;;;;;;;1.83;1.10;;;24.70;30.30;;;;;;5056470;28;20771;-77
2021/08/09 12:39:49;;;;;;;4.90;1.83;;;25.20;29.80;;;;;;5057069;28;20510;-78
2021/08/09 12:42:18;;;;;;;1.70;1.50;;;25.50;29.00;;;;;;5055974;28;20465;-78
2021/08/09 12:44:46;;;;;;;3.13;1.10;;;25.90;28.50;;;;;;5056333;28;20466;-78
2021/08/09 12:47:13;;;;;;;3.77;1.30;;;25.90;28.00;;;;;;5054454;28;20451;-78
2021/08/09 12:49:42;;;;;;;3.03;1.67;;;25.90;28.00;;;;;;5058183;28;20480;-78
2021/08/09 12:52:09;;;;;;;2.20;1.60;;;25.70;28.50;;;;;;5058442;28;20466;-77
2021/08/09 12:54:36;;;;;;;2.30;1.70;;;25.70;28.80;;;;;;5055971;28;20559;-78
2021/08/09 12:57:03;;;;;;;3.50;1.10;;;25.60;28.70;;;;;;5057613;28;20856;-78
2021/08/09 12:59:30;;;;;;;1.50;1.17;;;25.60;28.70;;;;;;5057157;28;20819;-78